sensor_id;sensor_type;location;lat;lon;timestamp;pressure;altitude;pressure_sealevel;temperature;humidity
18275;BME280;19470;49.322;7.218;2023-02-28T00:00:07;99546.91;;;4.12;58.37
18275;BME280;19470;49.322;7.218;2023-02-28T00:02:35;99539.44;;;4.38;57.62
18275;BME280;19470;49.322;7.218;2023-02-28T00:05:04;99543.53;;;3.88;59.03
18275;BME280;19470;49.322;7.218;2023-02-28T00:07:31;99532.94;;;4.19;58.66
18275;BME280;19470;49.322;7.218;2023-02-28T00:09:58;99542.72;;;3.65;60.76
18275;BME280;19470;49.322;7.218;2023-02-28T00:12:25;99545.16;;;3.89;59.32
18275;BME280;19470;49.322;7.218;2023-02-28T00:14:52;99539.50;;;4.15;59.27
18275;BME280;19470;49.322;7.218;2023-02-28T00:17:18;99537.56;;;3.94;59.74
18275;BME280;19470;49.322;7.218;2023-02-28T00:19:46;99531.25;;;4.03;59.21
18275;BME280;19470;49.322;7.218;2023-02-28T00:22:14;99534.88;;;4.02;59.87
18275;BME280;19470;49.322;7.218;2023-02-28T00:24:41;99530.94;;;3.83;60.63
18275;BME280;19470;49.322;7.218;2023-02-28T00:27:07;99534.44;;;4.14;59.33
18275;BME280;19470;49.322;7.218;2023-02-28T00:29:34;99533.28;;;4.31;58.99
18275;BME280;19470;49.322;7.218;2023-02-28T00:32:00;99526.19;;;3.87;59.46
18275;BME280;19470;49.322;7.218;2023-02-28T00:34:27;99535.16;;;3.70;61.02
18275;BME280;19470;49.322;7.218;2023-02-28T00:36:54;99535.91;;;4.31;58.71
18275;BME280;19470;49.322;7.218;2023-02-28T00:39:22;99539.16;;;3.80;60.14
18275;BME280;19470;49.322;7.218;2023-02-28T00:41:48;99534.06;;;4.02;59.60
18275;BME280;19470;49.322;7.218;2023-02-28T00:44:15;99539.59;;;4.22;58.73
18275;BME280;19470;49.322;7.218;2023-02-28T00:46:41;99541.41;;;4.36;58.26
18275;BME280;19470;49.322;7.218;2023-02-28T00:49:07;99540.88;;;4.26;58.33
18275;BME280;19470;49.322;7.218;2023-02-28T00:51:34;99543.44;;;3.81;59.58
18275;BME280;19470;49.322;7.218;2023-02-28T00:54:00;99546.94;;;3.89;59.98
18275;BME280;19470;49.322;7.218;2023-02-28T00:56:28;99535.16;;;4.07;59.26
18275;BME280;19470;49.322;7.218;2023-02-28T00:58:55;99540.44;;;4.52;58.07
18275;BME280;19470;49.322;7.218;2023-02-28T01:01:21;99537.53;;;4.32;59.18
18275;BME280;19470;49.322;7.218;2023-02-28T01:03:48;99539.25;;;4.54;57.99
18275;BME280;19470;49.322;7.218;2023-02-28T01:06:14;99543.28;;;3.98;60.09
18275;BME280;19470;49.322;7.218;2023-02-28T01:08:41;99543.28;;;4.13;59.08
18275;BME280;19470;49.322;7.218;2023-02-28T01:11:09;99547.69;;;3.97;61.03
18275;BME280;19470;49.322;7.218;2023-02-28T01:13:37;99544.09;;;3.98;60.84
18275;BME280;19470;49.322;7.218;2023-02-28T01:16:04;99545.31;;;4.25;59.68
18275;BME280;19470;49.322;7.218;2023-02-28T01:18:30;99547.50;;;3.99;60.38
18275;BME280;19470;49.322;7.218;2023-02-28T01:20:57;99547.97;;;3.42;62.69
18275;BME280;19470;49.322;7.218;2023-02-28T01:23:24;99550.06;;;4.07;60.65
18275;BME280;19470;49.322;7.218;2023-02-28T01:25:50;99545.19;;;3.81;61.57
18275;BME280;19470;49.322;7.218;2023-02-28T01:28:17;99555.13;;;4.08;60.88
18275;BME280;19470;49.322;7.218;2023-02-28T01:30:48;99546.66;;;3.83;62.12
18275;BME280;19470;49.322;7.218;2023-02-28T01:33:15;99548.09;;;3.48;63.02
18275;BME280;19470;49.322;7.218;2023-02-28T01:35:41;99548.31;;;3.99;61.34
18275;BME280;19470;49.322;7.218;2023-02-28T01:38:08;99557.50;;;3.57;63.22
18275;BME280;19470;49.322;7.218;2023-02-28T01:40:34;99549.81;;;3.79;63.03
18275;BME280;19470;49.322;7.218;2023-02-28T01:43:01;99546.81;;;3.67;63.84
18275;BME280;19470;49.322;7.218;2023-02-28T01:45:29;99542.06;;;2.86;65.48
18275;BME280;19470;49.322;7.218;2023-02-28T01:48:00;99548.06;;;3.71;62.91
18275;BME280;19470;49.322;7.218;2023-02-28T01:50:30;99539.72;;;3.30;64.78
18275;BME280;19470;49.322;7.218;2023-02-28T01:53:01;99534.81;;;3.73;63.42
18275;BME280;19470;49.322;7.218;2023-02-28T01:55:31;99533.94;;;3.57;63.58
18275;BME280;19470;49.322;7.218;2023-02-28T01:58:00;99532.03;;;3.51;63.68
18275;BME280;19470;49.322;7.218;2023-02-28T02:00:28;99535.03;;;3.86;62.76
18275;BME280;19470;49.322;7.218;2023-02-28T02:02:59;99534.19;;;3.85;63.32
18275;BME280;19470;49.322;7.218;2023-02-28T02:05:28;99531.97;;;3.97;62.68
18275;BME280;19470;49.322;7.218;2023-02-28T02:07:59;99532.16;;;3.58;63.53
18275;BME280;19470;49.322;7.218;2023-02-28T02:10:32;99530.00;;;3.76;63.08
18275;BME280;19470;49.322;7.218;2023-02-28T02:13:13;99531.09;;;3.44;65.11
18275;BME280;19470;49.322;7.218;2023-02-28T02:15:51;99537.22;;;3.05;66.83
18275;BME280;19470;49.322;7.218;2023-02-28T02:18:25;99531.38;;;3.72;64.71
18275;BME280;19470;49.322;7.218;2023-02-28T02:21:40;99537.34;;;2.81;66.83
18275;BME280;19470;49.322;7.218;2023-02-28T02:24:48;99529.69;;;3.11;66.01
18275;BME280;19470;49.322;7.218;2023-02-28T02:27:22;99532.03;;;3.89;63.84
18275;BME280;19470;49.322;7.218;2023-02-28T02:32:49;99524.81;;;3.30;65.76
18275;BME280;19470;49.322;7.218;2023-02-28T02:35:27;99522.00;;;3.32;65.85
18275;BME280;19470;49.322;7.218;2023-02-28T02:38:00;99519.63;;;3.45;64.62
18275;BME280;19470;49.322;7.218;2023-02-28T02:40:37;99513.47;;;3.76;64.89
18275;BME280;19470;49.322;7.218;2023-02-28T02:43:08;99513.03;;;3.72;64.65
18275;BME280;19470;49.322;7.218;2023-02-28T02:45:39;99516.53;;;4.02;63.66
18275;BME280;19470;49.322;7.218;2023-02-28T02:48:11;99518.34;;;4.17;63.21
18275;BME280;19470;49.322;7.218;2023-02-28T02:50:44;99518.91;;;4.42;62.59
18275;BME280;19470;49.322;7.218;2023-02-28T02:53:13;99525.78;;;3.06;67.57
18275;BME280;19470;49.322;7.218;2023-02-28T02:55:43;99530.34;;;3.96;64.48
18275;BME280;19470;49.322;7.218;2023-02-28T02:58:14;99517.53;;;4.16;63.12
18275;BME280;19470;49.322;7.218;2023-02-28T03:00:45;99520.78;;;4.03;63.47
18275;BME280;19470;49.322;7.218;2023-02-28T03:03:14;99527.25;;;3.78;64.31
18275;BME280;19470;49.322;7.218;2023-02-28T03:05:46;99525.88;;;3.44;66.69
18275;BME280;19470;49.322;7.218;2023-02-28T03:08:13;99525.88;;;3.67;65.64
18275;BME280;19470;49.322;7.218;2023-02-28T03:10:41;99516.75;;;3.78;65.13
18275;BME280;19470;49.322;7.218;2023-02-28T03:13:23;99524.81;;;3.53;65.82
18275;BME280;19470;49.322;7.218;2023-02-28T03:16:07;99518.16;;;3.20;68.11
18275;BME280;19470;49.322;7.218;2023-02-28T03:18:42;99519.19;;;3.79;65.67
18275;BME280;19470;49.322;7.218;2023-02-28T03:21:17;99516.47;;;3.73;65.31
18275;BME280;19470;49.322;7.218;2023-02-28T03:23:53;99514.41;;;3.45;66.64
18275;BME280;19470;49.322;7.218;2023-02-28T03:26:25;99509.19;;;3.83;65.84
18275;BME280;19470;49.322;7.218;2023-02-28T03:28:56;99516.19;;;3.68;65.62
18275;BME280;19470;49.322;7.218;2023-02-28T03:31:30;99515.09;;;2.85;67.50
18275;BME280;19470;49.322;7.218;2023-02-28T03:34:04;99514.91;;;3.64;66.20
18275;BME280;19470;49.322;7.218;2023-02-28T03:36:37;99512.59;;;3.83;65.84
18275;BME280;19470;49.322;7.218;2023-02-28T03:39:11;99510.19;;;3.36;68.12
18275;BME280;19470;49.322;7.218;2023-02-28T03:41:42;99508.25;;;3.76;65.83
18275;BME280;19470;49.322;7.218;2023-02-28T03:44:15;99514.94;;;3.10;68.76
18275;BME280;19470;49.322;7.218;2023-02-28T03:46:48;99509.22;;;2.83;69.27
18275;BME280;19470;49.322;7.218;2023-02-28T03:49:18;99505.34;;;3.48;67.70
18275;BME280;19470;49.322;7.218;2023-02-28T03:51:49;99507.19;;;2.93;68.90
18275;BME280;19470;49.322;7.218;2023-02-28T03:54:21;99511.69;;;3.07;69.30
18275;BME280;19470;49.322;7.218;2023-02-28T03:56:54;99510.16;;;3.44;68.00
18275;BME280;19470;49.322;7.218;2023-02-28T03:59:27;99514.75;;;2.88;69.13
18275;BME280;19470;49.322;7.218;2023-02-28T04:01:54;99512.34;;;2.78;70.76
18275;BME280;19470;49.322;7.218;2023-02-28T04:04:23;99512.31;;;3.10;69.95
18275;BME280;19470;49.322;7.218;2023-02-28T04:06:52;99509.66;;;2.55;71.69
18275;BME280;19470;49.322;7.218;2023-02-28T04:09:19;99510.38;;;3.12;70.28
18275;BME280;19470;49.322;7.218;2023-02-28T04:11:49;99506.28;;;3.09;70.01
18275;BME280;19470;49.322;7.218;2023-02-28T04:14:17;99505.31;;;2.79;71.33
18275;BME280;19470;49.322;7.218;2023-02-28T04:16:44;99512.66;;;2.84;70.84
18275;BME280;19470;49.322;7.218;2023-02-28T04:19:12;99502.66;;;2.87;71.44
18275;BME280;19470;49.322;7.218;2023-02-28T04:21:41;99504.44;;;3.18;69.33
18275;BME280;19470;49.322;7.218;2023-02-28T04:24:10;99509.66;;;3.18;70.69
18275;BME280;19470;49.322;7.218;2023-02-28T04:26:40;99501.94;;;2.62;71.28
18275;BME280;19470;49.322;7.218;2023-02-28T04:29:08;99504.00;;;2.83;70.79
18275;BME280;19470;49.322;7.218;2023-02-28T04:31:35;99508.72;;;2.88;70.26
18275;BME280;19470;49.322;7.218;2023-02-28T04:34:01;99506.56;;;3.14;70.52
18275;BME280;19470;49.322;7.218;2023-02-28T04:36:28;99510.03;;;3.38;69.55
18275;BME280;19470;49.322;7.218;2023-02-28T04:38:54;99506.94;;;2.80;71.28
18275;BME280;19470;49.322;7.218;2023-02-28T04:41:23;99510.66;;;3.17;70.52
18275;BME280;19470;49.322;7.218;2023-02-28T04:43:50;99506.41;;;3.39;69.54
18275;BME280;19470;49.322;7.218;2023-02-28T04:46:17;99501.16;;;3.39;69.29
18275;BME280;19470;49.322;7.218;2023-02-28T04:48:44;99503.63;;;3.40;68.76
18275;BME280;19470;49.322;7.218;2023-02-28T04:51:13;99507.50;;;2.98;70.75
18275;BME280;19470;49.322;7.218;2023-02-28T04:53:40;99509.84;;;3.16;70.32
18275;BME280;19470;49.322;7.218;2023-02-28T04:56:09;99508.50;;;2.97;70.43
18275;BME280;19470;49.322;7.218;2023-02-28T04:58:39;99514.59;;;2.81;71.96
18275;BME280;19470;49.322;7.218;2023-02-28T05:01:07;99512.75;;;2.90;70.94
18275;BME280;19470;49.322;7.218;2023-02-28T05:03:40;99513.31;;;2.38;73.54
18275;BME280;19470;49.322;7.218;2023-02-28T05:06:07;99503.69;;;2.78;72.84
18275;BME280;19470;49.322;7.218;2023-02-28T05:08:33;99505.69;;;2.99;71.66
18275;BME280;19470;49.322;7.218;2023-02-28T05:11:00;99508.56;;;2.81;71.36
18275;BME280;19470;49.322;7.218;2023-02-28T05:13:27;99507.56;;;3.13;71.59
18275;BME280;19470;49.322;7.218;2023-02-28T05:15:56;99511.44;;;2.94;71.57
18275;BME280;19470;49.322;7.218;2023-02-28T05:18:22;99511.69;;;2.76;71.69
18275;BME280;19470;49.322;7.218;2023-02-28T05:20:49;99508.59;;;2.73;72.40
18275;BME280;19470;49.322;7.218;2023-02-28T05:23:17;99512.81;;;3.13;71.14
18275;BME280;19470;49.322;7.218;2023-02-28T05:25:45;99513.31;;;3.08;70.32
18275;BME280;19470;49.322;7.218;2023-02-28T05:28:12;99513.28;;;3.17;70.89
18275;BME280;19470;49.322;7.218;2023-02-28T05:30:39;99530.56;;;2.55;74.06
18275;BME280;19470;49.322;7.218;2023-02-28T05:33:10;99527.34;;;2.45;74.36
18275;BME280;19470;49.322;7.218;2023-02-28T05:35:38;99521.09;;;2.94;71.74
18275;BME280;19470;49.322;7.218;2023-02-28T05:38:05;99519.16;;;3.19;71.66
18275;BME280;19470;49.322;7.218;2023-02-28T05:40:31;99520.84;;;3.12;71.33
18275;BME280;19470;49.322;7.218;2023-02-28T05:42:57;99515.38;;;2.59;72.86
18275;BME280;19470;49.322;7.218;2023-02-28T05:45:24;99514.50;;;3.06;71.72
18275;BME280;19470;49.322;7.218;2023-02-28T05:47:53;99521.88;;;3.02;72.22
18275;BME280;19470;49.322;7.218;2023-02-28T05:50:21;99524.81;;;2.99;71.72
18275;BME280;19470;49.322;7.218;2023-02-28T05:52:49;99528.09;;;2.54;73.39
18275;BME280;19470;49.322;7.218;2023-02-28T05:55:16;99527.00;;;2.48;74.17
18275;BME280;19470;49.322;7.218;2023-02-28T05:57:42;99525.63;;;2.69;73.42
18275;BME280;19470;49.322;7.218;2023-02-28T06:00:10;99526.66;;;2.91;73.46
18275;BME280;19470;49.322;7.218;2023-02-28T06:02:38;99531.34;;;3.03;72.87
18275;BME280;19470;49.322;7.218;2023-02-28T06:05:07;99533.88;;;2.41;75.10
18275;BME280;19470;49.322;7.218;2023-02-28T06:07:38;99536.97;;;2.92;74.14
18275;BME280;19470;49.322;7.218;2023-02-28T06:10:06;99528.41;;;2.67;75.13
18275;BME280;19470;49.322;7.218;2023-02-28T06:12:32;99530.97;;;2.28;75.63
18275;BME280;19470;49.322;7.218;2023-02-28T06:14:59;99531.91;;;2.43;76.46
18275;BME280;19470;49.322;7.218;2023-02-28T06:17:25;99535.81;;;2.47;75.05
18275;BME280;19470;49.322;7.218;2023-02-28T06:19:52;99528.72;;;3.03;73.89
18275;BME280;19470;49.322;7.218;2023-02-28T06:22:18;99539.28;;;2.87;74.10
18275;BME280;19470;49.322;7.218;2023-02-28T06:24:46;99535.31;;;2.91;73.81
18275;BME280;19470;49.322;7.218;2023-02-28T06:27:12;99538.47;;;2.39;75.43
18275;BME280;19470;49.322;7.218;2023-02-28T06:29:39;99535.72;;;2.80;74.04
18275;BME280;19470;49.322;7.218;2023-02-28T06:32:05;99542.78;;;2.63;74.99
18275;BME280;19470;49.322;7.218;2023-02-28T06:34:32;99538.31;;;2.80;73.68
18275;BME280;19470;49.322;7.218;2023-02-28T06:36:59;99549.38;;;2.90;72.92
18275;BME280;19470;49.322;7.218;2023-02-28T06:39:27;99544.75;;;3.00;73.58
18275;BME280;19470;49.322;7.218;2023-02-28T06:41:55;99552.19;;;2.33;75.75
18275;BME280;19470;49.322;7.218;2023-02-28T06:44:22;99555.19;;;3.08;72.99
18275;BME280;19470;49.322;7.218;2023-02-28T06:46:49;99552.09;;;3.05;73.24
18275;BME280;19470;49.322;7.218;2023-02-28T06:49:16;99558.63;;;2.70;74.42
18275;BME280;19470;49.322;7.218;2023-02-28T06:51:43;99555.94;;;3.25;73.64
18275;BME280;19470;49.322;7.218;2023-02-28T06:54:11;99555.75;;;3.27;72.58
18275;BME280;19470;49.322;7.218;2023-02-28T06:56:38;99559.50;;;3.55;71.28
18275;BME280;19470;49.322;7.218;2023-02-28T06:59:06;99563.91;;;2.53;75.34
18275;BME280;19470;49.322;7.218;2023-02-28T07:01:32;99567.94;;;3.12;73.05
18275;BME280;19470;49.322;7.218;2023-02-28T07:04:00;99572.41;;;3.34;72.64
18275;BME280;19470;49.322;7.218;2023-02-28T07:06:27;99566.00;;;3.37;72.33
18275;BME280;19470;49.322;7.218;2023-02-28T07:08:54;99572.41;;;3.03;72.17
18275;BME280;19470;49.322;7.218;2023-02-28T07:11:21;99565.78;;;3.15;72.55
18275;BME280;19470;49.322;7.218;2023-02-28T07:13:48;99572.41;;;3.34;72.75
18275;BME280;19470;49.322;7.218;2023-02-28T07:16:17;99568.59;;;3.68;71.01
18275;BME280;19470;49.322;7.218;2023-02-28T07:18:44;99577.13;;;3.07;73.33
18275;BME280;19470;49.322;7.218;2023-02-28T07:21:11;99572.75;;;3.31;72.95
18275;BME280;19470;49.322;7.218;2023-02-28T07:23:38;99574.72;;;2.98;73.93
18275;BME280;19470;49.322;7.218;2023-02-28T07:26:05;99570.97;;;3.54;71.21
18275;BME280;19470;49.322;7.218;2023-02-28T07:28:32;99574.47;;;4.07;69.27
18275;BME280;19470;49.322;7.218;2023-02-28T07:31:03;99569.38;;;3.91;70.43
18275;BME280;19470;49.322;7.218;2023-02-28T07:33:32;99570.78;;;3.56;71.17
18275;BME280;19470;49.322;7.218;2023-02-28T07:36:03;99576.03;;;3.79;70.84
18275;BME280;19470;49.322;7.218;2023-02-28T07:38:29;99577.78;;;3.87;70.58
18275;BME280;19470;49.322;7.218;2023-02-28T07:40:56;99579.75;;;3.62;71.75
18275;BME280;19470;49.322;7.218;2023-02-28T07:43:22;99578.06;;;4.44;69.06
18275;BME280;19470;49.322;7.218;2023-02-28T07:45:49;99579.97;;;3.98;70.06
18275;BME280;19470;49.322;7.218;2023-02-28T07:48:15;99580.44;;;3.55;70.46
18275;BME280;19470;49.322;7.218;2023-02-28T07:50:43;99580.09;;;3.58;71.10
18275;BME280;19470;49.322;7.218;2023-02-28T07:53:13;99579.59;;;3.32;71.12
18275;BME280;19470;49.322;7.218;2023-02-28T07:55:39;99576.13;;;4.23;69.36
18275;BME280;19470;49.322;7.218;2023-02-28T07:58:06;99576.72;;;4.78;66.99
18275;BME280;19470;49.322;7.218;2023-02-28T08:00:32;99571.53;;;4.40;67.36
18275;BME280;19470;49.322;7.218;2023-02-28T08:02:59;99581.47;;;4.30;68.51
18275;BME280;19470;49.322;7.218;2023-02-28T08:05:25;99578.59;;;4.99;65.13
18275;BME280;19470;49.322;7.218;2023-02-28T08:07:53;99587.13;;;4.56;66.68
18275;BME280;19470;49.322;7.218;2023-02-28T08:10:19;99577.75;;;4.09;68.50
18275;BME280;19470;49.322;7.218;2023-02-28T08:12:46;99586.06;;;4.28;67.14
18275;BME280;19470;49.322;7.218;2023-02-28T08:15:12;99588.16;;;4.32;67.46
18275;BME280;19470;49.322;7.218;2023-02-28T08:17:39;99584.72;;;4.32;68.16
18275;BME280;19470;49.322;7.218;2023-02-28T08:20:07;99585.53;;;3.95;68.07
18275;BME280;19470;49.322;7.218;2023-02-28T08:22:34;99583.91;;;4.17;67.25
18275;BME280;19470;49.322;7.218;2023-02-28T08:25:02;99578.69;;;4.46;66.52
18275;BME280;19470;49.322;7.218;2023-02-28T08:27:28;99587.84;;;4.80;65.69
18275;BME280;19470;49.322;7.218;2023-02-28T08:29:55;99586.59;;;4.23;67.08
18275;BME280;19470;49.322;7.218;2023-02-28T08:32:21;99581.16;;;4.63;66.27
18275;BME280;19470;49.322;7.218;2023-02-28T08:34:48;99581.41;;;4.68;65.37
18275;BME280;19470;49.322;7.218;2023-02-28T08:37:14;99584.50;;;4.04;66.65
18275;BME280;19470;49.322;7.218;2023-02-28T08:39:41;99581.78;;;4.50;66.05
18275;BME280;19470;49.322;7.218;2023-02-28T08:42:08;99574.16;;;4.70;65.09
18275;BME280;19470;49.322;7.218;2023-02-28T08:44:35;99587.22;;;5.65;62.23
18275;BME280;19470;49.322;7.218;2023-02-28T08:47:02;99580.88;;;5.59;62.51
18275;BME280;19470;49.322;7.218;2023-02-28T08:49:28;99578.50;;;5.64;62.42
18275;BME280;19470;49.322;7.218;2023-02-28T08:51:55;99582.78;;;5.29;62.57
18275;BME280;19470;49.322;7.218;2023-02-28T08:54:22;99583.97;;;5.84;62.29
18275;BME280;19470;49.322;7.218;2023-02-28T08:56:48;99583.13;;;5.62;61.79
18275;BME280;19470;49.322;7.218;2023-02-28T08:59:16;99585.38;;;4.93;63.38
18275;BME280;19470;49.322;7.218;2023-02-28T09:01:43;99564.38;;;6.08;60.99
18275;BME280;19470;49.322;7.218;2023-02-28T09:04:10;99578.59;;;5.35;62.20
18275;BME280;19470;49.322;7.218;2023-02-28T09:06:37;99575.25;;;5.26;62.33
18275;BME280;19470;49.322;7.218;2023-02-28T09:09:04;99576.13;;;5.48;62.01
18275;BME280;19470;49.322;7.218;2023-02-28T09:11:32;99577.97;;;4.52;65.29
18275;BME280;19470;49.322;7.218;2023-02-28T09:13:59;99573.84;;;5.88;61.26
18275;BME280;19470;49.322;7.218;2023-02-28T09:16:30;99576.16;;;5.70;62.16
18275;BME280;19470;49.322;7.218;2023-02-28T09:18:57;99575.66;;;6.02;60.40
18275;BME280;19470;49.322;7.218;2023-02-28T09:21:24;99572.72;;;6.47;58.87
18275;BME280;19470;49.322;7.218;2023-02-28T09:23:50;99575.00;;;6.56;59.62
18275;BME280;19470;49.322;7.218;2023-02-28T09:26:19;99575.84;;;6.29;59.97
18275;BME280;19470;49.322;7.218;2023-02-28T09:28:47;99572.13;;;5.74;60.17
18275;BME280;19470;49.322;7.218;2023-02-28T09:31:16;99580.97;;;5.66;60.78
18275;BME280;19470;49.322;7.218;2023-02-28T09:33:47;99575.47;;;7.01;56.52
18275;BME280;19470;49.322;7.218;2023-02-28T09:36:14;99578.09;;;7.01;57.85
18275;BME280;19470;49.322;7.218;2023-02-28T09:38:40;99567.13;;;7.65;54.74
18275;BME280;19470;49.322;7.218;2023-02-28T09:41:12;99573.72;;;6.74;57.95
18275;BME280;19470;49.322;7.218;2023-02-28T09:43:43;99574.41;;;7.50;55.64
18275;BME280;19470;49.322;7.218;2023-02-28T09:46:21;99568.97;;;6.97;57.34
18275;BME280;19470;49.322;7.218;2023-02-28T09:48:54;99567.97;;;7.86;53.62
18275;BME280;19470;49.322;7.218;2023-02-28T09:51:34;99570.38;;;8.34;53.02
18275;BME280;19470;49.322;7.218;2023-02-28T09:54:04;99568.28;;;8.82;52.87
18275;BME280;19470;49.322;7.218;2023-02-28T09:56:36;99583.88;;;6.21;57.62
18275;BME280;19470;49.322;7.218;2023-02-28T09:59:11;99572.81;;;7.62;54.89
18275;BME280;19470;49.322;7.218;2023-02-28T10:01:50;99568.34;;;7.89;53.15
18275;BME280;19470;49.322;7.218;2023-02-28T10:04:35;99569.56;;;8.13;52.21
18275;BME280;19470;49.322;7.218;2023-02-28T10:07:10;99569.56;;;8.27;51.13
18275;BME280;19470;49.322;7.218;2023-02-28T10:09:45;99576.88;;;8.11;51.64
18275;BME280;19470;49.322;7.218;2023-02-28T10:12:14;99574.88;;;8.07;51.49
18275;BME280;19470;49.322;7.218;2023-02-28T10:14:45;99569.19;;;8.36;51.35
18275;BME280;19470;49.322;7.218;2023-02-28T10:17:16;99568.38;;;8.03;51.34
18275;BME280;19470;49.322;7.218;2023-02-28T10:19:55;99576.13;;;7.23;54.65
18275;BME280;19470;49.322;7.218;2023-02-28T10:22:25;99581.53;;;7.02;54.82
18275;BME280;19470;49.322;7.218;2023-02-28T10:24:55;99571.22;;;8.48;50.93
18275;BME280;19470;49.322;7.218;2023-02-28T10:27:29;99560.25;;;8.11;51.36
18275;BME280;19470;49.322;7.218;2023-02-28T10:29:58;99569.97;;;7.71;52.99
18275;BME280;19470;49.322;7.218;2023-02-28T10:32:28;99556.34;;;7.40;54.07
18275;BME280;19470;49.322;7.218;2023-02-28T10:34:59;99559.03;;;8.13;52.31
18275;BME280;19470;49.322;7.218;2023-02-28T10:37:26;99565.50;;;7.64;53.79
18275;BME280;19470;49.322;7.218;2023-02-28T10:39:52;99552.84;;;8.79;49.67
18275;BME280;19470;49.322;7.218;2023-02-28T10:42:22;99549.25;;;9.50;47.90
18275;BME280;19470;49.322;7.218;2023-02-28T10:45:05;99563.91;;;8.56;49.95
18275;BME280;19470;49.322;7.218;2023-02-28T10:47:33;99558.88;;;8.93;48.78
18275;BME280;19470;49.322;7.218;2023-02-28T10:50:02;99548.88;;;8.37;50.63
18275;BME280;19470;49.322;7.218;2023-02-28T10:52:36;99559.53;;;9.33;47.42
18275;BME280;19470;49.322;7.218;2023-02-28T10:55:19;99555.16;;;9.84;47.42
18275;BME280;19470;49.322;7.218;2023-02-28T10:57:47;99555.03;;;10.47;45.53
18275;BME280;19470;49.322;7.218;2023-02-28T11:00:16;99552.91;;;9.49;46.91
18275;BME280;19470;49.322;7.218;2023-02-28T11:02:43;99543.69;;;10.77;43.75
18275;BME280;19470;49.322;7.218;2023-02-28T11:05:24;99551.59;;;10.65;44.21
18275;BME280;19470;49.322;7.218;2023-02-28T11:07:51;99553.66;;;9.88;45.65
18275;BME280;19470;49.322;7.218;2023-02-28T11:10:20;99550.38;;;9.92;44.91
18275;BME280;19470;49.322;7.218;2023-02-28T11:12:47;99528.28;;;10.30;43.54
18275;BME280;19470;49.322;7.218;2023-02-28T11:15:22;99542.59;;;10.22;45.32
18275;BME280;19470;49.322;7.218;2023-02-28T11:17:54;99535.38;;;11.40;42.31
18275;BME280;19470;49.322;7.218;2023-02-28T11:20:25;99534.59;;;12.51;39.28
18275;BME280;19470;49.322;7.218;2023-02-28T11:22:53;99527.50;;;12.81;39.10
18275;BME280;19470;49.322;7.218;2023-02-28T11:25:24;99522.94;;;13.50;38.19
18275;BME280;19470;49.322;7.218;2023-02-28T11:27:53;99529.69;;;12.72;38.51
18275;BME280;19470;49.322;7.218;2023-02-28T11:30:26;99518.06;;;12.61;38.87
18275;BME280;19470;49.322;7.218;2023-02-28T11:32:53;99533.50;;;11.40;41.05
18275;BME280;19470;49.322;7.218;2023-02-28T11:35:26;99524.19;;;10.09;41.63
18275;BME280;19470;49.322;7.218;2023-02-28T11:37:53;99527.72;;;10.03;42.16
18275;BME280;19470;49.322;7.218;2023-02-28T11:40:24;99535.28;;;9.43;43.45
18275;BME280;19470;49.322;7.218;2023-02-28T11:43:02;99530.50;;;9.58;43.07
18275;BME280;19470;49.322;7.218;2023-02-28T11:45:56;99524.00;;;9.54;44.09
18275;BME280;19470;49.322;7.218;2023-02-28T11:48:28;99535.34;;;9.30;42.92
18275;BME280;19470;49.322;7.218;2023-02-28T11:51:06;99531.03;;;9.35;41.58
18275;BME280;19470;49.322;7.218;2023-02-28T11:53:50;99538.09;;;8.58;44.20
18275;BME280;19470;49.322;7.218;2023-02-28T11:56:26;99533.38;;;8.60;44.32
18275;BME280;19470;49.322;7.218;2023-02-28T11:59:02;99526.44;;;9.24;47.31
18275;BME280;19470;49.322;7.218;2023-02-28T12:01:42;99518.13;;;9.20;44.51
18275;BME280;19470;49.322;7.218;2023-02-28T12:04:17;99512.53;;;10.17;44.11
18275;BME280;19470;49.322;7.218;2023-02-28T12:06:54;99508.84;;;9.43;44.36
18275;BME280;19470;49.322;7.218;2023-02-28T12:09:37;99510.53;;;9.62;44.21
18275;BME280;19470;49.322;7.218;2023-02-28T12:12:14;99520.16;;;9.50;42.98
18275;BME280;19470;49.322;7.218;2023-02-28T12:14:52;99509.94;;;9.29;43.57
18275;BME280;19470;49.322;7.218;2023-02-28T12:17:35;99514.41;;;10.71;41.07
18275;BME280;19470;49.322;7.218;2023-02-28T12:20:14;99506.94;;;11.29;40.04
18275;BME280;19470;49.322;7.218;2023-02-28T12:22:50;99498.91;;;11.35;38.40
18275;BME280;19470;49.322;7.218;2023-02-28T12:25:24;99498.34;;;12.10;38.57
18275;BME280;19470;49.322;7.218;2023-02-28T12:27:59;99507.13;;;11.57;39.19
18275;BME280;19470;49.322;7.218;2023-02-28T12:30:28;99513.72;;;10.94;40.57
18275;BME280;19470;49.322;7.218;2023-02-28T12:33:01;99503.41;;;10.13;41.31
18275;BME280;19470;49.322;7.218;2023-02-28T12:35:33;99494.88;;;12.85;37.12
18275;BME280;19470;49.322;7.218;2023-02-28T12:38:05;99495.28;;;13.34;35.17
18275;BME280;19470;49.322;7.218;2023-02-28T12:40:43;99495.63;;;14.05;34.96
18275;BME280;19470;49.322;7.218;2023-02-28T12:43:12;99490.38;;;12.86;35.60
18275;BME280;19470;49.322;7.218;2023-02-28T12:45:44;99491.56;;;14.19;34.47
18275;BME280;19470;49.322;7.218;2023-02-28T12:48:15;99499.31;;;13.08;35.94
18275;BME280;19470;49.322;7.218;2023-02-28T12:50:45;99494.50;;;12.53;36.73
18275;BME280;19470;49.322;7.218;2023-02-28T12:53:18;99494.84;;;12.57;35.74
18275;BME280;19470;49.322;7.218;2023-02-28T12:55:52;99499.31;;;13.08;35.96
18275;BME280;19470;49.322;7.218;2023-02-28T12:58:27;99479.66;;;14.88;33.27
18275;BME280;19470;49.322;7.218;2023-02-28T13:01:12;99484.63;;;11.36;38.92
18275;BME280;19470;49.322;7.218;2023-02-28T13:04:21;99489.56;;;11.03;38.31
18275;BME280;19470;49.322;7.218;2023-02-28T13:07:04;99485.31;;;11.02;38.92
18275;BME280;19470;49.322;7.218;2023-02-28T13:09:36;99490.91;;;10.93;39.35
18275;BME280;19470;49.322;7.218;2023-02-28T13:12:12;99482.16;;;10.93;39.47
18275;BME280;19470;49.322;7.218;2023-02-28T13:14:39;99488.22;;;10.27;39.40
18275;BME280;19470;49.322;7.218;2023-02-28T13:17:18;99495.91;;;9.28;40.92
18275;BME280;19470;49.322;7.218;2023-02-28T13:19:56;99495.69;;;9.86;39.70
18275;BME280;19470;49.322;7.218;2023-02-28T13:22:38;99494.06;;;8.97;41.94
18275;BME280;19470;49.322;7.218;2023-02-28T13:34:41;99479.66;;;12.05;37.26
18275;BME280;19470;49.322;7.218;2023-02-28T13:37:32;99474.72;;;11.55;36.89